Los Lunas, NM (87031)

17:28:MST den 09. februar 2016 (GMT -0700)
Valencia Y | | Change Station
CLOSE
Current Station
Personlig værstasjon
Location: Los Lunas, NM
Høyde over havet: 4852 ft
Nearby Weather Stations

H.o.h 4852 ft 34.81 °N, 106.70 °W | Updated 1 second ago

Klart
Klart
57.1 °F
Feels Like 57.1 °F
N
0.0
Vind Variabel Vind from ØNØ
Gusts 0.0 mph

I dag
High -- | Low -- °F
--% Chance of Precip.
I går
High -- | Low -- °F
Precip. -- tommer
Lufttrykk 30.32 tommer
Sikt 10.0 eng. mil
Skyet Klart
Duggpunkt 21 °F
Fuktighet 24%
Regn 0.00 tommer
Snødybde Not available.
6:58 AM 5:43 PM
Økende sigd, 3% visible
METAR KE80 100015Z AUTO 04004KT 10SM CLR 15/M09 A3032 RMK AO2 T01451090
Lufttrykk 30.32 tommer
Sikt 10.0 eng. mil
Skyet Klart
Duggpunkt 21 °F
Fuktighet 24%
Regn 0.00 tommer
Snødybde Not available.
6:58 AM 5:43 PM
Økende sigd, 3% visible
METAR KE80 100015Z AUTO 04004KT 10SM CLR 15/M09 A3032 RMK AO2 T01451090

10-Day Weather Forecast

Almanac

Astronomi

Feb. 09, 2016 Oppgang Nedgang
Virkelig tid
Tussmørke
Nautisk skumring
Astronomisk skumring
Månen
Lengde av synlig lys
Dagens lengde
Tomorrow will be .
, % of the Moon is Illuminated

Dagens maks og min

State Highs State Lows

Community

WunderPhotos

Upload Photos

1,891,748 photos uploaded!

WunderBlog® & News

Nearby

Luftkvalitet

  Luftkvalitet AQ Indeks Forurensing
Not available.

Snødybde

Stasjon Depth Høyde over havet

Earthquake Activity

By Distance Mag. Time & Date
Minimum magnitude displayed is 2.5.

Coastal Water Temperatures

Sted Temperatur

Stations

Nearby Weather Stations

Stasjonens lokasjon Temp. Nedkjølingseffekt Duggpunkt Fuktighet Vind Precip. H.o.h Oppdatert Type
                   

Watches & Warnings

There are currently no watches in effect.